createdAt,value
2017-07-29T00:00:11.656Z,937.33
2017-07-29T00:00:25.778Z,937.29
2017-07-29T00:00:39.202Z,937.28
2017-07-29T00:00:52.711Z,937.3
2017-07-29T00:01:06.151Z,937.27
2017-07-29T00:01:19.539Z,937.28
2017-07-29T00:01:33.003Z,937.29
2017-07-29T00:01:45.461Z,937.25
2017-07-29T00:01:58.391Z,937.27
2017-07-29T00:02:11.834Z,937.28
2017-07-29T00:02:25.313Z,937.27
2017-07-29T00:02:38.812Z,937.31
2017-07-29T00:02:52.250Z,937.28
2017-07-29T00:03:05.194Z,937.25
2017-07-29T00:03:18.690Z,937.28
2017-07-29T00:03:31.548Z,937.3
2017-07-29T00:03:45.190Z,937.3
2017-07-29T00:03:58.631Z,937.29
2017-07-29T00:04:11.012Z,937.29
2017-07-29T00:04:23.962Z,937.3
2017-07-29T00:04:36.928Z,937.27
2017-07-29T00:04:50.333Z,937.28
2017-07-29T00:05:03.795Z,937.29
2017-07-29T00:05:17.215Z,937.25
2017-07-29T00:05:30.623Z,937.25
2017-07-29T00:05:43.674Z,937.23
2017-07-29T00:05:57.144Z,937.28
2017-07-29T00:06:10.056Z,937.27
2017-07-29T00:06:23.465Z,937.28
2017-07-29T00:06:36.963Z,937.27
2017-07-29T00:06:50.532Z,937.26
2017-07-29T00:07:03.992Z,937.28
2017-07-29T00:07:17.517Z,937.25
2017-07-29T00:07:30.975Z,937.31
2017-07-29T00:07:44.415Z,937.27
2017-07-29T00:07:57.856Z,937.28
2017-07-29T00:08:10.779Z,937.27
2017-07-29T00:08:24.240Z,937.26
2017-07-29T00:08:37.720Z,937.26
2017-07-29T00:08:50.651Z,937.25
2017-07-29T00:09:02.490Z,937.26
2017-07-29T00:09:15.939Z,937.24
2017-07-29T00:09:29.384Z,937.28
2017-07-29T00:09:42.957Z,937.27
2017-07-29T00:09:56.418Z,937.24
2017-07-29T00:10:09.407Z,937.26
2017-07-29T00:10:22.399Z,937.28
2017-07-29T00:10:35.995Z,937.29
2017-07-29T00:10:49.461Z,937.28
2017-07-29T00:11:02.390Z,937.26
2017-07-29T00:11:15.860Z,937.24
2017-07-29T00:11:29.288Z,937.29
2017-07-29T00:11:42.765Z,937.28
2017-07-29T00:11:56.204Z,937.27
2017-07-29T00:12:09.686Z,937.27
2017-07-29T00:12:23.120Z,937.28
2017-07-29T00:12:36.579Z,937.26
2017-07-29T00:12:50.024Z,937.29
2017-07-29T00:13:03.022Z,937.27
2017-07-29T00:13:16.492Z,937.26
2017-07-29T00:13:29.941Z,937.26
2017-07-29T00:13:42.822Z,937.29
2017-07-29T00:13:56.305Z,937.3
2017-07-29T00:14:09.253Z,937.28
2017-07-29T00:14:22.685Z,937.26
2017-07-29T00:14:36.111Z,937.29
2017-07-29T00:14:49.055Z,937.29
2017-07-29T00:15:01.965Z,937.28
2017-07-29T00:15:15.400Z,937.27
2017-07-29T00:15:28.370Z,937.27
2017-07-29T00:15:42.112Z,937.27
2017-07-29T00:15:55.586Z,937.29
2017-07-29T00:16:08.978Z,937.27
2017-07-29T00:16:22.429Z,937.25
2017-07-29T00:16:34.801Z,937.28
2017-07-29T00:16:47.810Z,937.29
2017-07-29T00:17:01.314Z,937.27
2017-07-29T00:17:14.276Z,937.27
2017-07-29T00:17:27.677Z,937.26
2017-07-29T00:17:41.185Z,937.26
2017-07-29T00:17:54.652Z,937.3
2017-07-29T00:18:08.195Z,937.28
2017-07-29T00:18:21.641Z,937.28
2017-07-29T00:18:35.072Z,937.3
2017-07-29T00:18:47.996Z,937.31
2017-07-29T00:19:01.451Z,937.31
2017-07-29T00:19:14.898Z,937.32
2017-07-29T00:19:28.357Z,937.31
2017-07-29T00:19:41.347Z,937.29
2017-07-29T00:19:54.772Z,937.3
2017-07-29T00:20:08.246Z,937.31
2017-07-29T00:20:21.677Z,937.3
2017-07-29T00:20:34.642Z,937.32
2017-07-29T00:20:48.034Z,937.33
2017-07-29T00:21:01.542Z,937.29
2017-07-29T00:21:15.014Z,937.31
2017-07-29T00:21:27.907Z,937.29
2017-07-29T00:21:40.285Z,937.3
2017-07-29T00:21:53.178Z,937.31
2017-07-29T00:22:06.586Z,937.29
2017-07-29T00:22:19.539Z,937.33
2017-07-29T00:22:32.983Z,937.31
2017-07-29T00:22:45.925Z,937.31
2017-07-29T00:22:58.901Z,937.29
2017-07-29T00:23:11.829Z,937.33
2017-07-29T00:23:25.232Z,937.33
2017-07-29T00:23:38.638Z,937.28
2017-07-29T00:23:52.165Z,937.31
2017-07-29T00:24:05.656Z,937.34
2017-07-29T00:24:18.578Z,937.34
2017-07-29T00:24:31.508Z,937.31
2017-07-29T00:24:44.909Z,937.35
2017-07-29T00:24:58.347Z,937.37
2017-07-29T00:25:11.249Z,937.38
2017-07-29T00:25:24.751Z,937.37
2017-07-29T00:25:38.247Z,937.34
2017-07-29T00:25:51.719Z,937.36
2017-07-29T00:26:05.235Z,937.35
2017-07-29T00:26:18.749Z,937.37
2017-07-29T00:26:32.193Z,937.37
2017-07-29T00:26:45.633Z,937.4
2017-07-29T00:26:59.110Z,937.39
2017-07-29T00:27:12.641Z,937.38
2017-07-29T00:27:26.143Z,937.4
2017-07-29T00:27:39.534Z,937.39
2017-07-29T00:27:52.407Z,937.36
2017-07-29T00:28:05.390Z,937.4
2017-07-29T00:28:18.877Z,937.39
2017-07-29T00:28:31.781Z,937.39
2017-07-29T00:28:44.715Z,937.36
2017-07-29T00:28:58.142Z,937.37
2017-07-29T00:29:11.621Z,937.4
2017-07-29T00:29:25.039Z,937.38
2017-07-29T00:29:38.494Z,937.38
2017-07-29T00:29:51.435Z,937.36
2017-07-29T00:30:05.003Z,937.39
2017-07-29T00:30:18.431Z,937.38
2017-07-29T00:30:31.895Z,937.38
2017-07-29T00:30:45.838Z,937.41
2017-07-29T00:30:59.382Z,937.39
2017-07-29T00:31:12.886Z,937.39
2017-07-29T00:31:26.362Z,937.39
2017-07-29T00:31:38.804Z,937.38
2017-07-29T00:31:51.744Z,937.39
2017-07-29T00:32:04.647Z,937.39
2017-07-29T00:32:17.556Z,937.4
2017-07-29T00:32:30.961Z,937.37
2017-07-29T00:32:43.904Z,937.38
2017-07-29T00:32:56.853Z,937.39
2017-07-29T00:33:09.795Z,937.4
2017-07-29T00:33:22.767Z,937.4
2017-07-29T00:33:36.194Z,937.35
2017-07-29T00:33:49.649Z,937.41
2017-07-29T00:34:03.105Z,937.42
2017-07-29T00:34:16.017Z,937.42
2017-07-29T00:34:29.460Z,937.44
2017-07-29T00:34:42.892Z,937.44
2017-07-29T00:34:56.377Z,937.41
2017-07-29T00:35:08.784Z,937.42
2017-07-29T00:35:21.762Z,937.42
2017-07-29T00:35:35.288Z,937.44
2017-07-29T00:35:48.730Z,937.44
2017-07-29T00:36:01.637Z,937.42
2017-07-29T00:36:15.121Z,937.48
2017-07-29T00:36:28.588Z,937.43
2017-07-29T00:36:41.989Z,937.44
2017-07-29T00:36:55.406Z,937.43
2017-07-29T00:37:08.385Z,937.44
2017-07-29T00:37:21.865Z,937.45
2017-07-29T00:37:34.841Z,937.51
2017-07-29T00:37:48.301Z,937.45
2017-07-29T00:38:01.233Z,937.48
2017-07-29T00:38:14.763Z,937.48
2017-07-29T00:38:28.226Z,937.48
2017-07-29T00:38:41.689Z,937.47
2017-07-29T00:38:55.220Z,937.46
2017-07-29T00:39:08.728Z,937.43
2017-07-29T00:39:22.235Z,937.48
2017-07-29T00:39:35.671Z,937.48
2017-07-29T00:39:49.102Z,937.5
2017-07-29T00:40:02.013Z,937.44
2017-07-29T00:40:14.977Z,937.52
2017-07-29T00:40:28.437Z,937.49
2017-07-29T00:40:41.810Z,937.46
2017-07-29T00:40:54.676Z,937.47
2017-07-29T00:41:08.071Z,937.48
2017-07-29T00:41:21.481Z,937.46
2017-07-29T00:41:34.505Z,937.46
2017-07-29T00:41:47.993Z,937.48
2017-07-29T00:42:01.446Z,937.48
2017-07-29T00:42:14.321Z,937.44
2017-07-29T00:42:27.725Z,937.47
2017-07-29T00:42:40.139Z,937.49
2017-07-29T00:42:53.576Z,937.47
2017-07-29T00:43:06.577Z,937.48
2017-07-29T00:43:20.073Z,937.45
2017-07-29T00:43:33.441Z,937.5
2017-07-29T00:43:46.351Z,937.46
2017-07-29T00:43:59.747Z,937.47
2017-07-29T00:44:12.740Z,937.47
2017-07-29T00:44:26.187Z,937.49
2017-07-29T00:44:39.647Z,937.47
2017-07-29T00:44:53.124Z,937.46
2017-07-29T00:45:06.086Z,937.47
2017-07-29T00:45:19.570Z,937.44
2017-07-29T00:45:33.009Z,937.45
2017-07-29T00:45:46.508Z,937.44
2017-07-29T00:45:59.996Z,937.45
2017-07-29T00:46:13.463Z,937.47
2017-07-29T00:46:26.928Z,937.47
2017-07-29T00:46:40.397Z,937.49
2017-07-29T00:46:53.897Z,937.49
2017-07-29T00:47:07.363Z,937.47
2017-07-29T00:47:20.805Z,937.49
2017-07-29T00:47:33.721Z,937.5
2017-07-29T00:47:46.624Z,937.46
2017-07-29T00:47:59.645Z,937.45
2017-07-29T00:48:13.093Z,937.49
2017-07-29T00:48:26.005Z,937.49
2017-07-29T00:48:39.452Z,937.48
2017-07-29T00:48:52.947Z,937.5
2017-07-29T00:49:05.843Z,937.54
2017-07-29T00:49:18.744Z,937.52
2017-07-29T00:49:32.232Z,937.48
2017-07-29T00:49:45.751Z,937.47
2017-07-29T00:49:59.209Z,937.48
2017-07-29T00:50:12.634Z,937.5
2017-07-29T00:50:26.114Z,937.51
2017-07-29T00:50:39.534Z,937.51
2017-07-29T00:50:53.118Z,937.5
2017-07-29T00:51:06.002Z,937.53
2017-07-29T00:51:18.910Z,937.5
2017-07-29T00:51:31.858Z,937.52
2017-07-29T00:51:45.271Z,937.53
2017-07-29T00:51:58.720Z,937.49
2017-07-29T00:52:11.133Z,937.51
2017-07-29T00:52:24.068Z,937.51
2017-07-29T00:52:37.548Z,937.45
2017-07-29T00:52:51.025Z,937.49
2017-07-29T00:53:04.449Z,937.52
2017-07-29T00:53:17.854Z,937.51
2017-07-29T00:53:31.356Z,937.49
2017-07-29T00:53:44.770Z,937.51
2017-07-29T00:53:58.329Z,937.51
2017-07-29T00:54:11.778Z,937.5
2017-07-29T00:54:25.275Z,937.49
2017-07-29T00:54:38.712Z,937.46
2017-07-29T00:54:52.149Z,937.51
2017-07-29T00:55:05.015Z,937.48
2017-07-29T00:55:18.555Z,937.49
2017-07-29T00:55:31.927Z,937.51
2017-07-29T00:55:45.339Z,937.49
2017-07-29T00:55:58.756Z,937.52
2017-07-29T00:56:11.694Z,937.52
2017-07-29T00:56:25.129Z,937.53
2017-07-29T00:56:38.597Z,937.46
2017-07-29T00:56:52.026Z,937.49
2017-07-29T00:57:05.458Z,937.51
2017-07-29T00:57:18.917Z,937.5
2017-07-29T00:57:32.418Z,937.5
2017-07-29T00:57:45.929Z,937.5
2017-07-29T00:57:59.347Z,937.51
2017-07-29T00:58:12.830Z,937.51
2017-07-29T00:58:26.217Z,937.52
2017-07-29T00:58:39.166Z,937.5
2017-07-29T00:58:52.555Z,937.48
2017-07-29T00:59:05.488Z,937.45
2017-07-29T00:59:18.953Z,937.44
2017-07-29T00:59:32.447Z,937.49
2017-07-29T00:59:45.405Z,937.45
2017-07-29T00:59:58.272Z,937.49
2017-07-29T01:00:11.764Z,937.5
2017-07-29T01:00:25.191Z,937.49
2017-07-29T01:00:38.636Z,937.51
2017-07-29T01:00:52.113Z,937.53
2017-07-29T01:01:05.224Z,937.5
2017-07-29T01:01:18.706Z,937.51
2017-07-29T01:01:31.652Z,937.53
2017-07-29T01:01:45.125Z,937.5
2017-07-29T01:01:58.552Z,937.52
2017-07-29T01:02:11.424Z,937.54
2017-07-29T01:02:24.460Z,937.51
2017-07-29T01:02:37.928Z,937.54
2017-07-29T01:02:51.367Z,937.54
2017-07-29T01:03:04.290Z,937.57
2017-07-29T01:03:17.236Z,937.51
2017-07-29T01:03:30.660Z,937.55
2017-07-29T01:03:44.145Z,937.53
2017-07-29T01:03:57.094Z,937.54
2017-07-29T01:04:10.522Z,937.56
2017-07-29T01:04:23.980Z,937.58
2017-07-29T01:04:37.415Z,937.54
2017-07-29T01:04:50.269Z,937.53
2017-07-29T01:05:03.234Z,937.59
2017-07-29T01:05:16.713Z,937.57
2017-07-29T01:05:29.710Z,937.58
2017-07-29T01:05:43.224Z,937.58
2017-07-29T01:05:56.184Z,937.58
2017-07-29T01:06:09.614Z,937.58
2017-07-29T01:06:23.069Z,937.58
2017-07-29T01:06:36.492Z,937.58
2017-07-29T01:06:49.411Z,937.6
2017-07-29T01:07:02.833Z,937.58
2017-07-29T01:07:16.290Z,937.56
2017-07-29T01:07:29.228Z,937.63
2017-07-29T01:07:42.161Z,937.59
2017-07-29T01:07:55.636Z,937.58
2017-07-29T01:08:08.052Z,937.6
2017-07-29T01:08:20.902Z,937.58
2017-07-29T01:08:34.348Z,937.59
2017-07-29T01:08:47.715Z,937.6
2017-07-29T01:09:00.135Z,937.62
2017-07-29T01:09:13.600Z,937.58
2017-07-29T01:09:27.078Z,937.61
2017-07-29T01:09:40.579Z,937.62
2017-07-29T01:09:53.979Z,937.58
2017-07-29T01:10:06.941Z,937.56
2017-07-29T01:10:20.395Z,937.61
2017-07-29T01:10:33.862Z,937.62
2017-07-29T01:10:47.374Z,937.6
2017-07-29T01:11:00.831Z,937.63
2017-07-29T01:11:13.798Z,937.63
2017-07-29T01:11:27.272Z,937.58
2017-07-29T01:11:40.835Z,937.63
2017-07-29T01:11:53.765Z,937.61
2017-07-29T01:12:07.211Z,937.62
2017-07-29T01:12:19.620Z,937.63
2017-07-29T01:12:32.527Z,937.6
2017-07-29T01:12:45.924Z,937.6
2017-07-29T01:12:59.428Z,937.58
2017-07-29T01:13:12.908Z,937.62
2017-07-29T01:13:26.359Z,937.6
2017-07-29T01:13:39.825Z,937.63
2017-07-29T01:13:53.300Z,937.63
2017-07-29T01:14:06.268Z,937.63
2017-07-29T01:14:19.722Z,937.61
2017-07-29T01:14:33.224Z,937.63
2017-07-29T01:14:46.634Z,937.64
2017-07-29T01:15:00.058Z,937.64
2017-07-29T01:15:12.998Z,937.63
2017-07-29T01:15:26.437Z,937.62
2017-07-29T01:15:39.392Z,937.62
2017-07-29T01:15:52.319Z,937.61
2017-07-29T01:16:06.018Z,937.6
2017-07-29T01:16:19.517Z,937.64
2017-07-29T01:16:31.904Z,937.63
2017-07-29T01:16:44.891Z,937.62
2017-07-29T01:16:57.807Z,937.64
2017-07-29T01:17:10.768Z,937.65
2017-07-29T01:17:24.237Z,937.64
2017-07-29T01:17:37.778Z,937.66
2017-07-29T01:17:50.741Z,937.62
2017-07-29T01:18:04.190Z,937.65
2017-07-29T01:18:16.650Z,937.64
2017-07-29T01:18:30.160Z,937.68
2017-07-29T01:18:43.072Z,937.67
2017-07-29T01:18:56.533Z,937.67
2017-07-29T01:19:11.388Z,937.66
2017-07-29T01:19:24.785Z,937.67
2017-07-29T01:19:38.217Z,937.68
2017-07-29T01:19:51.696Z,937.64
2017-07-29T01:20:05.187Z,937.67
2017-07-29T01:20:18.666Z,937.67
2017-07-29T01:20:33.586Z,937.66
2017-07-29T01:20:46.996Z,937.66
2017-07-29T01:20:59.413Z,937.65
2017-07-29T01:21:12.872Z,937.67
2017-07-29T01:21:25.810Z,937.65
2017-07-29T01:21:39.255Z,937.65
2017-07-29T01:21:52.673Z,937.65
2017-07-29T01:22:05.633Z,937.66
2017-07-29T01:22:18.691Z,937.67
2017-07-29T01:22:32.137Z,937.68
2017-07-29T01:22:45.101Z,937.69
2017-07-29T01:22:58.535Z,937.7
2017-07-29T01:23:11.989Z,937.7
2017-07-29T01:23:25.443Z,937.71
2017-07-29T01:23:38.958Z,937.72
2017-07-29T01:23:52.391Z,937.71
2017-07-29T01:24:05.845Z,937.69
2017-07-29T01:24:19.394Z,937.73
2017-07-29T01:24:32.879Z,937.71
2017-07-29T01:24:46.331Z,937.7
2017-07-29T01:24:59.738Z,937.72
2017-07-29T01:25:13.132Z,937.71
2017-07-29T01:25:26.614Z,937.69
2017-07-29T01:25:40.113Z,937.74
2017-07-29T01:25:53.627Z,937.72
2017-07-29T01:26:06.563Z,937.71
2017-07-29T01:26:20.008Z,937.72
2017-07-29T01:26:33.456Z,937.73
2017-07-29T01:26:46.904Z,937.7
2017-07-29T01:27:00.339Z,937.7
2017-07-29T01:27:12.761Z,937.71
2017-07-29T01:27:26.212Z,937.7
2017-07-29T01:27:39.637Z,937.66
2017-07-29T01:27:53.075Z,937.67
2017-07-29T01:28:06.010Z,937.7
2017-07-29T01:28:19.654Z,937.68
2017-07-29T01:28:33.092Z,937.69
2017-07-29T01:28:46.550Z,937.72
2017-07-29T01:28:59.455Z,937.68
2017-07-29T01:29:12.400Z,937.7
2017-07-29T01:29:25.929Z,937.7
2017-07-29T01:29:39.386Z,937.7
2017-07-29T01:29:52.401Z,937.68
2017-07-29T01:30:05.831Z,937.71
2017-07-29T01:30:19.291Z,937.71
2017-07-29T01:30:32.814Z,937.69
2017-07-29T01:30:46.221Z,937.69
2017-07-29T01:30:59.147Z,937.69
2017-07-29T01:31:13.259Z,937.7
2017-07-29T01:31:26.741Z,937.65
2017-07-29T01:31:40.194Z,937.67
2017-07-29T01:31:53.144Z,937.69
2017-07-29T01:32:06.605Z,937.65
2017-07-29T01:32:20.043Z,937.69
2017-07-29T01:32:32.418Z,937.68
2017-07-29T01:32:45.375Z,937.67
2017-07-29T01:32:58.838Z,937.66
2017-07-29T01:33:12.260Z,937.67
2017-07-29T01:33:25.696Z,937.67
2017-07-29T01:33:38.607Z,937.66
2017-07-29T01:33:51.495Z,937.68
2017-07-29T01:34:04.996Z,937.69
2017-07-29T01:34:17.998Z,937.65
2017-07-29T01:34:31.403Z,937.69
2017-07-29T01:34:44.868Z,937.68
2017-07-29T01:34:58.363Z,937.71
2017-07-29T01:35:11.812Z,937.67
2017-07-29T01:35:25.233Z,937.68
2017-07-29T01:35:38.697Z,937.66
2017-07-29T01:35:52.138Z,937.67
2017-07-29T01:36:05.052Z,937.7
2017-07-29T01:36:18.479Z,937.7
2017-07-29T01:36:31.996Z,937.7
2017-07-29T01:36:45.419Z,937.67
2017-07-29T01:36:58.844Z,937.69
2017-07-29T01:37:12.349Z,937.68
2017-07-29T01:37:25.284Z,937.69
2017-07-29T01:37:38.811Z,937.69
2017-07-29T01:37:52.325Z,937.65
2017-07-29T01:38:05.736Z,937.65
2017-07-29T01:38:17.604Z,937.66
2017-07-29T01:38:30.571Z,937.63
2017-07-29T01:38:44.065Z,937.65
2017-07-29T01:38:56.984Z,937.62
2017-07-29T01:39:09.513Z,937.65
2017-07-29T01:39:22.387Z,937.63
2017-07-29T01:39:35.827Z,937.65
2017-07-29T01:39:49.301Z,937.67
2017-07-29T01:40:02.758Z,937.67
2017-07-29T01:40:15.712Z,937.67
2017-07-29T01:40:28.630Z,937.68
2017-07-29T01:40:42.012Z,937.69
2017-07-29T01:40:55.495Z,937.68
2017-07-29T01:41:09.594Z,937.67
2017-07-29T01:41:23.123Z,937.68
2017-07-29T01:41:36.559Z,937.67
2017-07-29T01:41:50.053Z,937.67
2017-07-29T01:42:02.949Z,937.68
2017-07-29T01:42:15.872Z,937.68
2017-07-29T01:42:29.354Z,937.67
2017-07-29T01:42:42.824Z,937.7
2017-07-29T01:42:56.329Z,937.66
2017-07-29T01:43:09.882Z,937.63
2017-07-29T01:43:23.334Z,937.66
2017-07-29T01:43:36.767Z,937.68
2017-07-29T01:43:50.429Z,937.66
2017-07-29T01:44:03.992Z,937.66
2017-07-29T01:44:16.932Z,937.69
2017-07-29T01:44:30.378Z,937.73
2017-07-29T01:44:43.845Z,937.68
2017-07-29T01:44:56.834Z,937.67
2017-07-29T01:45:10.287Z,937.7
2017-07-29T01:45:23.768Z,937.69
2017-07-29T01:45:36.137Z,937.66
2017-07-29T01:45:49.097Z,937.7
2017-07-29T01:46:02.602Z,937.69
2017-07-29T01:46:16.822Z,937.64
2017-07-29T01:46:30.271Z,937.68
2017-07-29T01:46:43.696Z,937.64
2017-07-29T01:46:57.069Z,937.66
2017-07-29T01:47:10.496Z,937.68
2017-07-29T01:47:23.995Z,937.73
2017-07-29T01:47:37.475Z,937.68
2017-07-29T01:47:50.355Z,937.68
2017-07-29T01:48:03.336Z,937.72
2017-07-29T01:48:16.785Z,937.71
2017-07-29T01:48:30.325Z,937.7
2017-07-29T01:48:43.770Z,937.71
2017-07-29T01:48:56.707Z,937.71
2017-07-29T01:49:10.124Z,937.68
2017-07-29T01:49:23.593Z,937.7
2017-07-29T01:49:36.995Z,937.7
2017-07-29T01:49:50.423Z,937.71
2017-07-29T01:50:03.324Z,937.72
2017-07-29T01:50:16.800Z,937.71
2017-07-29T01:50:30.396Z,937.68
2017-07-29T01:50:43.859Z,937.73
2017-07-29T01:50:56.801Z,937.72
2017-07-29T01:51:10.208Z,937.75
2017-07-29T01:51:23.705Z,937.72
2017-07-29T01:51:37.121Z,937.74
2017-07-29T01:51:50.614Z,937.76
2017-07-29T01:52:04.097Z,937.78
2017-07-29T01:52:17.544Z,937.74
2017-07-29T01:52:30.971Z,937.75
2017-07-29T01:52:44.459Z,937.77
2017-07-29T01:52:57.883Z,937.79
2017-07-29T01:53:11.350Z,937.8
2017-07-29T01:53:24.770Z,937.76
2017-07-29T01:53:37.682Z,937.76
2017-07-29T01:53:50.679Z,937.79
2017-07-29T01:54:03.677Z,937.78
2017-07-29T01:54:16.630Z,937.77
2017-07-29T01:54:30.151Z,937.78
2017-07-29T01:54:43.575Z,937.74
2017-07-29T01:54:56.517Z,937.73
2017-07-29T01:55:09.413Z,937.75
2017-07-29T01:55:22.894Z,937.73
2017-07-29T01:55:36.312Z,937.75
2017-07-29T01:55:49.295Z,937.78
2017-07-29T01:56:02.709Z,937.76
2017-07-29T01:56:15.839Z,937.77
2017-07-29T01:56:29.307Z,937.74
2017-07-29T01:56:42.751Z,937.74
2017-07-29T01:56:56.203Z,937.78
2017-07-29T01:57:09.689Z,937.74
2017-07-29T01:57:23.104Z,937.77
2017-07-29T01:57:36.489Z,937.73
2017-07-29T01:57:49.477Z,937.75
2017-07-29T01:58:02.910Z,937.72
2017-07-29T01:58:15.861Z,937.73
2017-07-29T01:58:29.296Z,937.76
2017-07-29T01:58:42.719Z,937.77
2017-07-29T01:58:55.654Z,937.78
2017-07-29T01:59:09.105Z,937.78
2017-07-29T01:59:22.548Z,937.75
2017-07-29T01:59:35.435Z,937.77
2017-07-29T01:59:48.301Z,937.79
2017-07-29T02:00:01.268Z,937.76
2017-07-29T02:00:13.643Z,937.74
2017-07-29T02:00:28.533Z,937.77
2017-07-29T02:00:42.012Z,937.77
2017-07-29T02:00:55.510Z,937.77
2017-07-29T02:01:08.991Z,937.77
2017-07-29T02:01:23.095Z,937.77
2017-07-29T02:01:36.492Z,937.77
2017-07-29T02:01:49.928Z,937.78
2017-07-29T02:02:03.369Z,937.8
2017-07-29T02:02:16.286Z,937.79
2017-07-29T02:02:29.740Z,937.75
2017-07-29T02:02:43.417Z,937.79
2017-07-29T02:02:56.839Z,937.79
2017-07-29T02:03:09.719Z,937.78
2017-07-29T02:03:23.215Z,937.77
2017-07-29T02:03:36.687Z,937.75
2017-07-29T02:03:50.136Z,937.75
2017-07-29T02:04:03.085Z,937.78
2017-07-29T02:04:16.034Z,937.77
2017-07-29T02:04:28.983Z,937.79
2017-07-29T02:04:41.874Z,937.77
2017-07-29T02:04:55.286Z,937.77
2017-07-29T02:05:08.783Z,937.77
2017-07-29T02:05:22.203Z,937.77
2017-07-29T02:05:35.634Z,937.77
2017-07-29T02:05:48.551Z,937.78
2017-07-29T02:06:02.033Z,937.78
2017-07-29T02:06:15.032Z,937.77
2017-07-29T02:06:28.515Z,937.8
2017-07-29T02:06:41.933Z,937.81
2017-07-29T02:06:55.471Z,937.77
2017-07-29T02:07:08.913Z,937.76
2017-07-29T02:07:21.835Z,937.78
2017-07-29T02:07:35.263Z,937.78
2017-07-29T02:07:48.187Z,937.77
2017-07-29T02:08:01.652Z,937.76
2017-07-29T02:08:15.128Z,937.77
2017-07-29T02:08:27.999Z,937.74
2017-07-29T02:08:40.872Z,937.74
2017-07-29T02:08:53.782Z,937.74
2017-07-29T02:09:07.161Z,937.75
2017-07-29T02:09:20.647Z,937.72
2017-07-29T02:09:33.023Z,937.73
2017-07-29T02:09:46.515Z,937.75
2017-07-29T02:09:59.908Z,937.74
2017-07-29T02:10:12.851Z,937.72
2017-07-29T02:10:25.864Z,937.7
2017-07-29T02:10:39.387Z,937.74
2017-07-29T02:10:52.375Z,937.73
2017-07-29T02:11:05.803Z,937.7
2017-07-29T02:11:19.214Z,937.73
2017-07-29T02:11:32.156Z,937.72
2017-07-29T02:11:45.628Z,937.69
2017-07-29T02:11:59.055Z,937.69
2017-07-29T02:12:12.502Z,937.72
2017-07-29T02:12:25.445Z,937.71
2017-07-29T02:12:38.842Z,937.69
2017-07-29T02:12:52.259Z,937.69
2017-07-29T02:13:05.161Z,937.7
2017-07-29T02:13:18.069Z,937.71
2017-07-29T02:13:31.526Z,937.68
2017-07-29T02:13:45.000Z,937.71
2017-07-29T02:13:58.522Z,937.72
2017-07-29T02:14:11.970Z,937.68
2017-07-29T02:14:25.425Z,937.71
2017-07-29T02:14:38.885Z,937.7
2017-07-29T02:14:52.348Z,937.72
2017-07-29T02:15:05.785Z,937.72
2017-07-29T02:15:19.223Z,937.73
2017-07-29T02:15:31.620Z,937.67
2017-07-29T02:15:45.023Z,937.69
2017-07-29T02:15:58.516Z,937.71
2017-07-29T02:16:12.006Z,937.69
2017-07-29T02:16:26.205Z,937.67
2017-07-29T02:16:39.618Z,937.69
2017-07-29T02:16:53.063Z,937.69
2017-07-29T02:17:05.973Z,937.68
2017-07-29T02:17:19.394Z,937.7
2017-07-29T02:17:32.832Z,937.7
2017-07-29T02:17:45.822Z,937.69
2017-07-29T02:17:59.268Z,937.66
2017-07-29T02:18:12.731Z,937.67
2017-07-29T02:18:26.143Z,937.69
2017-07-29T02:18:39.024Z,937.67
2017-07-29T02:18:52.449Z,937.68
2017-07-29T02:19:05.971Z,937.68
2017-07-29T02:19:19.508Z,937.69
2017-07-29T02:19:32.382Z,937.64
2017-07-29T02:19:45.859Z,937.66
2017-07-29T02:19:59.313Z,937.66
2017-07-29T02:20:12.777Z,937.68
2017-07-29T02:20:25.713Z,937.66
2017-07-29T02:20:38.582Z,937.64
2017-07-29T02:20:52.037Z,937.68
2017-07-29T02:21:05.498Z,937.69
2017-07-29T02:21:18.399Z,937.65
2017-07-29T02:21:31.301Z,937.67
2017-07-29T02:21:44.206Z,937.63
2017-07-29T02:21:57.184Z,937.66
2017-07-29T02:22:09.561Z,937.63
2017-07-29T02:22:22.534Z,937.65
2017-07-29T02:22:36.035Z,937.67
2017-07-29T02:22:49.486Z,937.64
2017-07-29T02:23:02.936Z,937.67
2017-07-29T02:23:16.415Z,937.69
2017-07-29T02:23:29.848Z,937.67
2017-07-29T02:23:43.249Z,937.68
2017-07-29T02:23:56.667Z,937.67
2017-07-29T02:24:09.579Z,937.67
2017-07-29T02:24:22.495Z,937.7
2017-07-29T02:24:36.013Z,937.67
2017-07-29T02:24:49.482Z,937.67
2017-07-29T02:25:02.866Z,937.65
2017-07-29T02:25:16.301Z,937.68
2017-07-29T02:25:29.819Z,937.64
2017-07-29T02:25:43.362Z,937.66
2017-07-29T02:25:56.813Z,937.69
2017-07-29T02:26:09.715Z,937.67
2017-07-29T02:26:23.228Z,937.66
2017-07-29T02:26:36.693Z,937.67
2017-07-29T02:26:50.218Z,937.7
2017-07-29T02:27:03.655Z,937.68
2017-07-29T02:27:16.590Z,937.69
2017-07-29T02:27:29.954Z,937.68
2017-07-29T02:27:43.425Z,937.69
2017-07-29T02:27:56.835Z,937.67
2017-07-29T02:28:09.782Z,937.66
2017-07-29T02:28:23.261Z,937.66
2017-07-29T02:28:36.756Z,937.66
2017-07-29T02:28:50.197Z,937.66
2017-07-29T02:29:03.136Z,937.64
2017-07-29T02:29:16.558Z,937.65
2017-07-29T02:29:29.546Z,937.63
2017-07-29T02:29:42.985Z,937.66
2017-07-29T02:29:56.493Z,937.67
2017-07-29T02:30:09.343Z,937.68
2017-07-29T02:30:22.844Z,937.65
2017-07-29T02:30:36.392Z,937.67
2017-07-29T02:30:49.899Z,937.67
2017-07-29T02:31:03.357Z,937.67
2017-07-29T02:31:16.828Z,937.64
2017-07-29T02:31:30.873Z,937.64
2017-07-29T02:31:43.788Z,937.64
2017-07-29T02:31:57.294Z,937.65
2017-07-29T02:32:10.214Z,937.63
2017-07-29T02:32:23.680Z,937.65
2017-07-29T02:32:37.081Z,937.63
2017-07-29T02:32:50.502Z,937.66
2017-07-29T02:33:03.487Z,937.67
2017-07-29T02:33:16.997Z,937.61
2017-07-29T02:33:30.491Z,937.68
2017-07-29T02:33:44.015Z,937.69
2017-07-29T02:33:56.886Z,937.64
2017-07-29T02:34:10.316Z,937.65
2017-07-29T02:34:23.816Z,937.64
2017-07-29T02:34:37.238Z,937.65
2017-07-29T02:34:50.733Z,937.66
2017-07-29T02:35:04.208Z,937.66
2017-07-29T02:35:17.633Z,937.63
2017-07-29T02:35:31.098Z,937.61
2017-07-29T02:35:44.597Z,937.63
2017-07-29T02:35:58.020Z,937.6
2017-07-29T02:36:11.496Z,937.65
2017-07-29T02:36:25.138Z,937.66
2017-07-29T02:36:38.090Z,937.68
2017-07-29T02:36:51.516Z,937.66
2017-07-29T02:37:04.971Z,937.64
2017-07-29T02:37:17.864Z,937.64
2017-07-29T02:37:31.270Z,937.66
2017-07-29T02:37:44.694Z,937.65
2017-07-29T02:37:58.179Z,937.63
2017-07-29T02:38:11.633Z,937.63
2017-07-29T02:38:24.517Z,937.6
2017-07-29T02:38:37.459Z,937.61
2017-07-29T02:38:50.899Z,937.61
2017-07-29T02:39:03.323Z,937.62
2017-07-29T02:39:16.822Z,937.63
2017-07-29T02:39:29.222Z,937.63
2017-07-29T02:39:42.724Z,937.61
2017-07-29T02:39:56.217Z,937.63
2017-07-29T02:40:09.147Z,937.65
2017-07-29T02:40:22.563Z,937.63
2017-07-29T02:40:36.048Z,937.64
2017-07-29T02:40:49.545Z,937.6
2017-07-29T02:41:02.945Z,937.62
2017-07-29T02:41:16.337Z,937.63
2017-07-29T02:41:29.805Z,937.6
2017-07-29T02:41:43.270Z,937.62
2017-07-29T02:41:56.705Z,937.62
2017-07-29T02:42:09.113Z,937.6
2017-07-29T02:42:22.568Z,937.64
2017-07-29T02:42:36.030Z,937.62
2017-07-29T02:42:49.535Z,937.6
2017-07-29T02:43:02.992Z,937.59
2017-07-29T02:43:15.914Z,937.6
2017-07-29T02:43:29.396Z,937.63
2017-07-29T02:43:42.846Z,937.62
2017-07-29T02:43:56.274Z,937.6
2017-07-29T02:44:09.143Z,937.57
2017-07-29T02:44:22.053Z,937.59
2017-07-29T02:44:34.958Z,937.59
2017-07-29T02:44:48.398Z,937.6
2017-07-29T02:45:01.792Z,937.6
2017-07-29T02:45:15.307Z,937.61
2017-07-29T02:45:28.281Z,937.61
2017-07-29T02:45:43.161Z,937.62
2017-07-29T02:45:56.175Z,937.61
2017-07-29T02:46:09.641Z,937.61
2017-07-29T02:46:23.131Z,937.6
2017-07-29T02:46:37.326Z,937.62